sensor_id;sensor_type;location;lat;lon;timestamp;P1;durP1;ratioP1;P2;durP2;ratioP2
67564;SDS011;54393;53.556;49.216;2023-08-08T00:00:53;1.02;;;0.93;;
67564;SDS011;54393;53.556;49.216;2023-08-08T00:03:19;1.30;;;1.20;;
67564;SDS011;54393;53.556;49.216;2023-08-08T00:05:46;1.75;;;1.27;;
67564;SDS011;54393;53.556;49.216;2023-08-08T00:08:12;1.70;;;1.50;;
67564;SDS011;54393;53.556;49.216;2023-08-08T00:10:38;1.17;;;1.17;;
67564;SDS011;54393;53.556;49.216;2023-08-08T00:13:05;1.45;;;1.35;;
67564;SDS011;54393;53.556;49.216;2023-08-08T00:15:31;1.48;;;1.37;;
67564;SDS011;54393;53.556;49.216;2023-08-08T00:17:58;2.05;;;1.20;;
67564;SDS011;54393;53.556;49.216;2023-08-08T00:20:24;2.33;;;1.20;;
67564;SDS011;54393;53.556;49.216;2023-08-08T00:22:51;1.05;;;1.05;;
67564;SDS011;54393;53.556;49.216;2023-08-08T00:25:17;1.95;;;1.20;;
67564;SDS011;54393;53.556;49.216;2023-08-08T00:27:44;1.05;;;1.05;;
67564;SDS011;54393;53.556;49.216;2023-08-08T00:30:11;1.10;;;1.10;;
67564;SDS011;54393;53.556;49.216;2023-08-08T00:32:40;1.40;;;1.30;;
67564;SDS011;54393;53.556;49.216;2023-08-08T00:35:07;1.20;;;1.10;;
67564;SDS011;54393;53.556;49.216;2023-08-08T00:37:34;1.30;;;1.20;;
67564;SDS011;54393;53.556;49.216;2023-08-08T00:40:00;1.05;;;1.05;;
67564;SDS011;54393;53.556;49.216;2023-08-08T00:42:27;2.05;;;1.23;;
67564;SDS011;54393;53.556;49.216;2023-08-08T00:44:53;1.00;;;1.00;;
67564;SDS011;54393;53.556;49.216;2023-08-08T00:47:20;1.25;;;1.10;;
67564;SDS011;54393;53.556;49.216;2023-08-08T00:49:46;1.30;;;1.30;;
67564;SDS011;54393;53.556;49.216;2023-08-08T00:52:13;1.05;;;1.05;;
67564;SDS011;54393;53.556;49.216;2023-08-08T00:54:40;1.10;;;1.10;;
67564;SDS011;54393;53.556;49.216;2023-08-08T00:57:06;2.97;;;1.10;;
67564;SDS011;54393;53.556;49.216;2023-08-08T00:59:33;1.50;;;1.05;;
67564;SDS011;54393;53.556;49.216;2023-08-08T01:01:59;1.45;;;1.35;;
67564;SDS011;54393;53.556;49.216;2023-08-08T01:04:26;1.73;;;1.27;;
67564;SDS011;54393;53.556;49.216;2023-08-08T01:12:12;0.90;;;0.90;;
67564;SDS011;54393;53.556;49.216;2023-08-08T01:14:40;1.12;;;1.05;;
67564;SDS011;54393;53.556;49.216;2023-08-08T01:17:08;1.98;;;1.17;;
67564;SDS011;54393;53.556;49.216;2023-08-08T01:19:35;1.08;;;1.08;;
67564;SDS011;54393;53.556;49.216;2023-08-08T01:22:04;2.65;;;1.30;;
67564;SDS011;54393;53.556;49.216;2023-08-08T01:24:32;1.30;;;1.20;;
67564;SDS011;54393;53.556;49.216;2023-08-08T01:27:02;0.80;;;0.80;;
67564;SDS011;54393;53.556;49.216;2023-08-08T01:29:30;1.33;;;1.23;;
67564;SDS011;54393;53.556;49.216;2023-08-08T01:31:57;1.75;;;1.30;;
67564;SDS011;54393;53.556;49.216;2023-08-08T01:34:23;1.12;;;1.12;;
67564;SDS011;54393;53.556;49.216;2023-08-08T01:36:57;1.25;;;1.12;;
67564;SDS011;54393;53.556;49.216;2023-08-08T01:39:32;1.20;;;1.20;;
67564;SDS011;54393;53.556;49.216;2023-08-08T01:41:58;1.62;;;1.35;;
67564;SDS011;54393;53.556;49.216;2023-08-08T01:44:25;1.12;;;1.12;;
67564;SDS011;54393;53.556;49.216;2023-08-08T01:46:53;1.12;;;1.12;;
67564;SDS011;54393;53.556;49.216;2023-08-08T01:49:20;1.10;;;1.02;;
67564;SDS011;54393;53.556;49.216;2023-08-08T01:51:46;0.90;;;0.90;;
67564;SDS011;54393;53.556;49.216;2023-08-08T01:54:13;2.42;;;1.70;;
67564;SDS011;54393;53.556;49.216;2023-08-08T01:56:42;2.05;;;1.10;;
67564;SDS011;54393;53.556;49.216;2023-08-08T01:59:08;1.10;;;1.10;;
67564;SDS011;54393;53.556;49.216;2023-08-08T02:01:35;2.85;;;1.30;;
67564;SDS011;54393;53.556;49.216;2023-08-08T02:04:01;2.10;;;1.15;;
67564;SDS011;54393;53.556;49.216;2023-08-08T02:06:28;3.03;;;1.15;;
67564;SDS011;54393;53.556;49.216;2023-08-08T02:08:55;1.25;;;1.15;;
67564;SDS011;54393;53.556;49.216;2023-08-08T02:11:21;2.05;;;1.08;;
67564;SDS011;54393;53.556;49.216;2023-08-08T02:13:48;2.08;;;1.08;;
67564;SDS011;54393;53.556;49.216;2023-08-08T02:16:14;0.98;;;0.98;;
67564;SDS011;54393;53.556;49.216;2023-08-08T02:18:41;1.95;;;1.37;;
67564;SDS011;54393;53.556;49.216;2023-08-08T02:21:07;1.50;;;1.05;;
67564;SDS011;54393;53.556;49.216;2023-08-08T02:23:34;1.23;;;1.12;;
67564;SDS011;54393;53.556;49.216;2023-08-08T02:26:00;1.20;;;1.08;;
67564;SDS011;54393;53.556;49.216;2023-08-08T02:28:27;1.02;;;1.02;;
67564;SDS011;54393;53.556;49.216;2023-08-08T02:30:53;2.53;;;1.55;;
67564;SDS011;54393;53.556;49.216;2023-08-08T02:33:20;1.25;;;1.15;;
67564;SDS011;54393;53.556;49.216;2023-08-08T02:35:46;1.35;;;1.10;;
67564;SDS011;54393;53.556;49.216;2023-08-08T02:38:13;1.40;;;1.30;;
67564;SDS011;54393;53.556;49.216;2023-08-08T02:40:39;1.40;;;1.30;;
67564;SDS011;54393;53.556;49.216;2023-08-08T02:43:06;1.20;;;1.10;;
67564;SDS011;54393;53.556;49.216;2023-08-08T02:45:34;1.30;;;1.20;;
67564;SDS011;54393;53.556;49.216;2023-08-08T02:48:01;1.40;;;1.20;;
67564;SDS011;54393;53.556;49.216;2023-08-08T02:50:27;1.37;;;1.20;;
67564;SDS011;54393;53.556;49.216;2023-08-08T02:52:54;1.62;;;1.27;;
67564;SDS011;54393;53.556;49.216;2023-08-08T02:55:20;1.50;;;1.40;;
67564;SDS011;54393;53.556;49.216;2023-08-08T02:57:46;3.05;;;1.20;;
67564;SDS011;54393;53.556;49.216;2023-08-08T03:00:13;1.40;;;1.30;;
67564;SDS011;54393;53.556;49.216;2023-08-08T03:02:39;2.28;;;1.42;;
67564;SDS011;54393;53.556;49.216;2023-08-08T03:05:06;1.75;;;1.30;;
67564;SDS011;54393;53.556;49.216;2023-08-08T03:07:33;1.42;;;1.30;;
67564;SDS011;54393;53.556;49.216;2023-08-08T03:09:59;1.55;;;1.25;;
67564;SDS011;54393;53.556;49.216;2023-08-08T03:12:26;1.50;;;1.30;;
67564;SDS011;54393;53.556;49.216;2023-08-08T03:14:53;2.10;;;1.40;;
67564;SDS011;54393;53.556;49.216;2023-08-08T03:17:19;1.52;;;1.40;;
67564;SDS011;54393;53.556;49.216;2023-08-08T03:19:46;1.27;;;1.17;;
67564;SDS011;54393;53.556;49.216;2023-08-08T03:22:12;3.20;;;1.37;;
67564;SDS011;54393;53.556;49.216;2023-08-08T03:24:38;1.73;;;1.62;;
67564;SDS011;54393;53.556;49.216;2023-08-08T03:27:05;1.58;;;1.48;;
67564;SDS011;54393;53.556;49.216;2023-08-08T03:29:31;1.70;;;1.60;;
67564;SDS011;54393;53.556;49.216;2023-08-08T03:31:58;1.95;;;1.60;;
67564;SDS011;54393;53.556;49.216;2023-08-08T03:34:24;1.55;;;1.45;;
67564;SDS011;54393;53.556;49.216;2023-08-08T03:36:51;1.80;;;1.70;;
67564;SDS011;54393;53.556;49.216;2023-08-08T03:39:17;1.87;;;1.62;;
67564;SDS011;54393;53.556;49.216;2023-08-08T03:41:43;2.35;;;1.85;;
67564;SDS011;54393;53.556;49.216;2023-08-08T03:44:10;2.35;;;1.55;;
67564;SDS011;54393;53.556;49.216;2023-08-08T03:46:36;1.75;;;1.65;;
67564;SDS011;54393;53.556;49.216;2023-08-08T03:49:03;1.52;;;1.42;;
67564;SDS011;54393;53.556;49.216;2023-08-08T03:51:29;1.83;;;1.73;;
67564;SDS011;54393;53.556;49.216;2023-08-08T03:53:55;2.50;;;1.52;;
67564;SDS011;54393;53.556;49.216;2023-08-08T03:56:22;2.05;;;1.52;;
67564;SDS011;54393;53.556;49.216;2023-08-08T03:58:49;1.65;;;1.55;;
67564;SDS011;54393;53.556;49.216;2023-08-08T04:01:15;1.65;;;1.50;;
67564;SDS011;54393;53.556;49.216;2023-08-08T04:03:42;1.73;;;1.37;;
67564;SDS011;54393;53.556;49.216;2023-08-08T04:06:08;1.90;;;1.80;;
67564;SDS011;54393;53.556;49.216;2023-08-08T04:08:34;1.45;;;1.35;;
67564;SDS011;54393;53.556;49.216;2023-08-08T04:11:01;1.67;;;1.58;;
67564;SDS011;54393;53.556;49.216;2023-08-08T04:13:27;1.58;;;1.48;;
67564;SDS011;54393;53.556;49.216;2023-08-08T04:15:54;1.83;;;1.45;;
67564;SDS011;54393;53.556;49.216;2023-08-08T04:18:20;1.65;;;1.55;;
67564;SDS011;54393;53.556;49.216;2023-08-08T04:20:47;2.20;;;2.00;;
67564;SDS011;54393;53.556;49.216;2023-08-08T04:23:13;2.25;;;1.65;;
67564;SDS011;54393;53.556;49.216;2023-08-08T04:25:40;1.95;;;1.37;;
67564;SDS011;54393;53.556;49.216;2023-08-08T04:28:06;2.67;;;1.90;;
67564;SDS011;54393;53.556;49.216;2023-08-08T04:30:33;2.40;;;1.58;;
67564;SDS011;54393;53.556;49.216;2023-08-08T04:33:00;1.58;;;1.48;;
67564;SDS011;54393;53.556;49.216;2023-08-08T04:35:26;1.83;;;1.73;;
67564;SDS011;54393;53.556;49.216;2023-08-08T04:37:53;1.92;;;1.70;;
67564;SDS011;54393;53.556;49.216;2023-08-08T04:40:19;2.45;;;1.60;;
67564;SDS011;54393;53.556;49.216;2023-08-08T04:42:46;1.80;;;1.70;;
67564;SDS011;54393;53.556;49.216;2023-08-08T04:45:12;1.45;;;1.35;;
67564;SDS011;54393;53.556;49.216;2023-08-08T04:47:39;1.60;;;1.42;;
67564;SDS011;54393;53.556;49.216;2023-08-08T04:50:05;3.25;;;1.40;;
67564;SDS011;54393;53.556;49.216;2023-08-08T04:52:32;1.90;;;1.80;;
67564;SDS011;54393;53.556;49.216;2023-08-08T04:54:59;1.87;;;1.50;;
67564;SDS011;54393;53.556;49.216;2023-08-08T04:57:25;2.10;;;1.90;;
67564;SDS011;54393;53.556;49.216;2023-08-08T04:59:52;2.20;;;2.00;;
67564;SDS011;54393;53.556;49.216;2023-08-08T05:02:18;3.53;;;1.70;;
67564;SDS011;54393;53.556;49.216;2023-08-08T05:04:44;1.75;;;1.65;;
67564;SDS011;54393;53.556;49.216;2023-08-08T05:07:11;1.73;;;1.62;;
67564;SDS011;54393;53.556;49.216;2023-08-08T05:09:38;2.00;;;1.90;;
67564;SDS011;54393;53.556;49.216;2023-08-08T05:12:04;1.52;;;1.40;;
67564;SDS011;54393;53.556;49.216;2023-08-08T05:14:31;2.30;;;1.77;;
67564;SDS011;54393;53.556;49.216;2023-08-08T05:16:57;2.28;;;1.70;;
67564;SDS011;54393;53.556;49.216;2023-08-08T05:19:24;2.22;;;1.83;;
67564;SDS011;54393;53.556;49.216;2023-08-08T05:21:51;1.95;;;1.85;;
67564;SDS011;54393;53.556;49.216;2023-08-08T05:24:18;1.65;;;1.55;;
67564;SDS011;54393;53.556;49.216;2023-08-08T05:26:44;3.17;;;1.87;;
67564;SDS011;54393;53.556;49.216;2023-08-08T05:29:10;1.83;;;1.70;;
67564;SDS011;54393;53.556;49.216;2023-08-08T05:31:37;4.18;;;1.98;;
67564;SDS011;54393;53.556;49.216;2023-08-08T05:34:03;4.57;;;1.87;;
67564;SDS011;54393;53.556;49.216;2023-08-08T05:36:30;2.25;;;2.05;;
67564;SDS011;54393;53.556;49.216;2023-08-08T05:38:56;1.83;;;1.60;;
67564;SDS011;54393;53.556;49.216;2023-08-08T05:41:23;2.50;;;1.90;;
67564;SDS011;54393;53.556;49.216;2023-08-08T05:43:50;4.68;;;2.00;;
67564;SDS011;54393;53.556;49.216;2023-08-08T05:46:16;3.50;;;2.12;;
67564;SDS011;54393;53.556;49.216;2023-08-08T05:48:43;2.53;;;2.00;;
67564;SDS011;54393;53.556;49.216;2023-08-08T05:51:09;6.37;;;1.85;;
67564;SDS011;54393;53.556;49.216;2023-08-08T05:53:35;2.00;;;1.80;;
67564;SDS011;54393;53.556;49.216;2023-08-08T05:56:03;2.20;;;2.00;;
67564;SDS011;54393;53.556;49.216;2023-08-08T05:58:30;3.08;;;2.00;;
67564;SDS011;54393;53.556;49.216;2023-08-08T06:00:56;1.92;;;1.80;;
67564;SDS011;54393;53.556;49.216;2023-08-08T06:03:23;2.55;;;2.28;;
67564;SDS011;54393;53.556;49.216;2023-08-08T06:05:49;3.42;;;2.10;;
67564;SDS011;54393;53.556;49.216;2023-08-08T06:08:16;2.45;;;2.25;;
67564;SDS011;54393;53.556;49.216;2023-08-08T06:10:42;2.22;;;2.05;;
67564;SDS011;54393;53.556;49.216;2023-08-08T06:13:08;2.10;;;1.98;;
67564;SDS011;54393;53.556;49.216;2023-08-08T06:15:35;2.05;;;1.95;;
67564;SDS011;54393;53.556;49.216;2023-08-08T06:18:01;2.15;;;2.03;;
67564;SDS011;54393;53.556;49.216;2023-08-08T06:20:28;3.15;;;2.47;;
67564;SDS011;54393;53.556;49.216;2023-08-08T06:22:54;2.55;;;2.08;;
67564;SDS011;54393;53.556;49.216;2023-08-08T06:25:21;2.33;;;2.12;;
67564;SDS011;54393;53.556;49.216;2023-08-08T06:27:47;1.85;;;1.75;;
67564;SDS011;54393;53.556;49.216;2023-08-08T06:30:14;3.05;;;2.42;;
67564;SDS011;54393;53.556;49.216;2023-08-08T06:32:41;3.30;;;2.30;;
67564;SDS011;54393;53.556;49.216;2023-08-08T06:35:07;2.17;;;1.98;;
67564;SDS011;54393;53.556;49.216;2023-08-08T06:37:35;2.47;;;2.28;;
67564;SDS011;54393;53.556;49.216;2023-08-08T06:40:01;3.70;;;2.83;;
67564;SDS011;54393;53.556;49.216;2023-08-08T06:42:28;5.68;;;2.60;;
67564;SDS011;54393;53.556;49.216;2023-08-08T06:44:54;3.45;;;2.53;;
67564;SDS011;54393;53.556;49.216;2023-08-08T06:47:21;2.95;;;2.47;;
67564;SDS011;54393;53.556;49.216;2023-08-08T06:49:48;2.97;;;2.30;;
67564;SDS011;54393;53.556;49.216;2023-08-08T06:52:14;6.43;;;2.90;;
67564;SDS011;54393;53.556;49.216;2023-08-08T06:54:41;2.83;;;2.60;;
67564;SDS011;54393;53.556;49.216;2023-08-08T06:57:08;3.65;;;2.22;;
67564;SDS011;54393;53.556;49.216;2023-08-08T06:59:34;3.55;;;2.67;;
67564;SDS011;54393;53.556;49.216;2023-08-08T07:02:01;3.17;;;2.92;;
67564;SDS011;54393;53.556;49.216;2023-08-08T07:04:27;2.90;;;2.60;;
67564;SDS011;54393;53.556;49.216;2023-08-08T07:06:54;2.60;;;2.12;;
67564;SDS011;54393;53.556;49.216;2023-08-08T07:09:21;3.87;;;2.33;;
67564;SDS011;54393;53.556;49.216;2023-08-08T07:11:47;4.03;;;1.95;;
67564;SDS011;54393;53.556;49.216;2023-08-08T07:14:14;3.70;;;2.33;;
67564;SDS011;54393;53.556;49.216;2023-08-08T07:16:41;3.37;;;2.30;;
67564;SDS011;54393;53.556;49.216;2023-08-08T07:19:07;3.45;;;2.17;;
67564;SDS011;54393;53.556;49.216;2023-08-08T07:21:34;4.87;;;2.30;;
67564;SDS011;54393;53.556;49.216;2023-08-08T07:24:00;2.40;;;2.20;;
67564;SDS011;54393;53.556;49.216;2023-08-08T07:26:28;3.22;;;2.30;;
67564;SDS011;54393;53.556;49.216;2023-08-08T07:28:55;2.58;;;2.37;;
67564;SDS011;54393;53.556;49.216;2023-08-08T07:31:22;2.60;;;2.40;;
67564;SDS011;54393;53.556;49.216;2023-08-08T07:33:49;6.75;;;2.97;;
67564;SDS011;54393;53.556;49.216;2023-08-08T07:36:15;3.40;;;2.50;;
67564;SDS011;54393;53.556;49.216;2023-08-08T07:38:42;2.40;;;2.20;;
67564;SDS011;54393;53.556;49.216;2023-08-08T07:41:09;2.42;;;2.28;;
67564;SDS011;54393;53.556;49.216;2023-08-08T07:43:35;3.78;;;2.65;;
67564;SDS011;54393;53.556;49.216;2023-08-08T07:46:02;3.53;;;2.55;;
67564;SDS011;54393;53.556;49.216;2023-08-08T07:48:29;3.67;;;2.40;;
67564;SDS011;54393;53.556;49.216;2023-08-08T07:50:56;3.17;;;2.20;;
67564;SDS011;54393;53.556;49.216;2023-08-08T07:53:22;2.67;;;2.45;;
67564;SDS011;54393;53.556;49.216;2023-08-08T07:55:49;2.97;;;2.28;;
67564;SDS011;54393;53.556;49.216;2023-08-08T07:58:16;2.78;;;2.47;;
67564;SDS011;54393;53.556;49.216;2023-08-08T08:00:43;2.90;;;2.30;;
67564;SDS011;54393;53.556;49.216;2023-08-08T08:03:10;3.75;;;2.40;;
67564;SDS011;54393;53.556;49.216;2023-08-08T08:05:38;4.05;;;2.25;;
67564;SDS011;54393;53.556;49.216;2023-08-08T08:08:05;3.67;;;2.28;;
67564;SDS011;54393;53.556;49.216;2023-08-08T08:10:33;2.70;;;2.33;;
67564;SDS011;54393;53.556;49.216;2023-08-08T08:13:01;2.92;;;2.30;;
67564;SDS011;54393;53.556;49.216;2023-08-08T08:15:30;3.58;;;2.25;;
67564;SDS011;54393;53.556;49.216;2023-08-08T08:17:57;4.25;;;2.83;;
67564;SDS011;54393;53.556;49.216;2023-08-08T08:20:24;2.87;;;2.37;;
67564;SDS011;54393;53.556;49.216;2023-08-08T08:22:51;3.30;;;2.58;;
67564;SDS011;54393;53.556;49.216;2023-08-08T08:25:19;5.50;;;2.33;;
67564;SDS011;54393;53.556;49.216;2023-08-08T08:27:45;2.10;;;2.00;;
67564;SDS011;54393;53.556;49.216;2023-08-08T08:30:12;4.50;;;2.40;;
67564;SDS011;54393;53.556;49.216;2023-08-08T08:32:40;3.50;;;2.33;;
67564;SDS011;54393;53.556;49.216;2023-08-08T08:35:07;2.60;;;2.40;;
67564;SDS011;54393;53.556;49.216;2023-08-08T08:37:35;4.35;;;2.30;;
67564;SDS011;54393;53.556;49.216;2023-08-08T08:40:01;2.70;;;2.50;;
67564;SDS011;54393;53.556;49.216;2023-08-08T08:42:31;3.15;;;2.45;;
67564;SDS011;54393;53.556;49.216;2023-08-08T08:44:58;3.67;;;2.33;;
67564;SDS011;54393;53.556;49.216;2023-08-08T08:47:25;2.85;;;2.40;;
67564;SDS011;54393;53.556;49.216;2023-08-08T08:49:54;2.37;;;2.10;;
67564;SDS011;54393;53.556;49.216;2023-08-08T08:52:21;2.45;;;2.33;;
67564;SDS011;54393;53.556;49.216;2023-08-08T08:54:48;2.78;;;2.40;;
67564;SDS011;54393;53.556;49.216;2023-08-08T08:57:20;2.90;;;2.22;;
67564;SDS011;54393;53.556;49.216;2023-08-08T08:59:49;2.58;;;2.35;;
67564;SDS011;54393;53.556;49.216;2023-08-08T09:02:16;2.30;;;2.20;;
67564;SDS011;54393;53.556;49.216;2023-08-08T09:04:44;2.62;;;2.42;;
67564;SDS011;54393;53.556;49.216;2023-08-08T09:07:12;3.47;;;2.10;;
67564;SDS011;54393;53.556;49.216;2023-08-08T09:09:39;2.60;;;2.40;;
67564;SDS011;54393;53.556;49.216;2023-08-08T09:12:10;2.28;;;2.10;;
67564;SDS011;54393;53.556;49.216;2023-08-08T09:14:41;2.40;;;2.20;;
67564;SDS011;54393;53.556;49.216;2023-08-08T09:17:11;3.17;;;2.40;;
67564;SDS011;54393;53.556;49.216;2023-08-08T09:19:41;2.50;;;2.30;;
67564;SDS011;54393;53.556;49.216;2023-08-08T09:22:13;2.67;;;2.47;;
67564;SDS011;54393;53.556;49.216;2023-08-08T09:24:42;2.00;;;1.90;;
67564;SDS011;54393;53.556;49.216;2023-08-08T09:27:12;2.50;;;2.30;;
67564;SDS011;54393;53.556;49.216;2023-08-08T09:29:38;2.30;;;2.20;;
67564;SDS011;54393;53.556;49.216;2023-08-08T09:32:05;2.42;;;2.03;;
67564;SDS011;54393;53.556;49.216;2023-08-08T09:34:33;2.03;;;1.92;;
67564;SDS011;54393;53.556;49.216;2023-08-08T09:37:00;2.37;;;2.17;;
67564;SDS011;54393;53.556;49.216;2023-08-08T09:39:28;6.45;;;2.70;;
67564;SDS011;54393;53.556;49.216;2023-08-08T09:41:56;2.60;;;2.40;;
67564;SDS011;54393;53.556;49.216;2023-08-08T09:44:23;2.62;;;2.42;;
67564;SDS011;54393;53.556;49.216;2023-08-08T09:46:51;2.55;;;2.30;;
67564;SDS011;54393;53.556;49.216;2023-08-08T09:49:18;3.33;;;2.37;;
67564;SDS011;54393;53.556;49.216;2023-08-08T09:51:47;4.35;;;2.00;;
67564;SDS011;54393;53.556;49.216;2023-08-08T09:54:15;2.28;;;2.00;;
67564;SDS011;54393;53.556;49.216;2023-08-08T09:56:42;1.80;;;1.70;;
67564;SDS011;54393;53.556;49.216;2023-08-08T09:59:09;2.87;;;2.30;;
67564;SDS011;54393;53.556;49.216;2023-08-08T10:01:39;3.47;;;2.20;;
67564;SDS011;54393;53.556;49.216;2023-08-08T10:04:11;2.10;;;2.00;;
67564;SDS011;54393;53.556;49.216;2023-08-08T10:06:38;2.33;;;2.08;;
67564;SDS011;54393;53.556;49.216;2023-08-08T10:09:12;2.55;;;2.35;;
67564;SDS011;54393;53.556;49.216;2023-08-08T10:11:44;2.12;;;1.87;;
67564;SDS011;54393;53.556;49.216;2023-08-08T10:14:14;2.67;;;2.10;;
67564;SDS011;54393;53.556;49.216;2023-08-08T10:16:44;2.42;;;2.22;;
67564;SDS011;54393;53.556;49.216;2023-08-08T10:19:11;2.60;;;2.40;;
67564;SDS011;54393;53.556;49.216;2023-08-08T10:21:41;5.30;;;2.10;;
67564;SDS011;54393;53.556;49.216;2023-08-08T10:24:09;2.42;;;2.17;;
67564;SDS011;54393;53.556;49.216;2023-08-08T10:29:19;3.37;;;2.58;;
67564;SDS011;54393;53.556;49.216;2023-08-08T10:34:20;4.80;;;2.50;;
67564;SDS011;54393;53.556;49.216;2023-08-08T10:36:50;4.18;;;2.60;;
67564;SDS011;54393;53.556;49.216;2023-08-08T10:39:18;5.75;;;2.58;;
67564;SDS011;54393;53.556;49.216;2023-08-08T10:41:46;2.83;;;2.50;;
67564;SDS011;54393;53.556;49.216;2023-08-08T10:44:20;2.90;;;2.70;;
67564;SDS011;54393;53.556;49.216;2023-08-08T10:46:50;3.42;;;2.60;;
67564;SDS011;54393;53.556;49.216;2023-08-08T10:49:18;4.03;;;2.33;;
67564;SDS011;54393;53.556;49.216;2023-08-08T10:51:46;3.65;;;2.55;;
67564;SDS011;54393;53.556;49.216;2023-08-08T10:54:21;3.60;;;2.80;;
67564;SDS011;54393;53.556;49.216;2023-08-08T10:56:56;4.57;;;2.40;;
67564;SDS011;54393;53.556;49.216;2023-08-08T10:59:24;3.22;;;2.50;;
67564;SDS011;54393;53.556;49.216;2023-08-08T11:01:53;2.65;;;2.45;;
67564;SDS011;54393;53.556;49.216;2023-08-08T11:04:22;3.10;;;2.40;;
67564;SDS011;54393;53.556;49.216;2023-08-08T11:06:52;3.95;;;2.90;;
67564;SDS011;54393;53.556;49.216;2023-08-08T11:09:19;4.57;;;2.50;;
67564;SDS011;54393;53.556;49.216;2023-08-08T11:11:46;3.83;;;2.58;;
67564;SDS011;54393;53.556;49.216;2023-08-08T11:14:13;5.40;;;2.80;;
67564;SDS011;54393;53.556;49.216;2023-08-08T11:16:40;5.80;;;2.65;;
67564;SDS011;54393;53.556;49.216;2023-08-08T11:19:08;3.47;;;2.58;;
67564;SDS011;54393;53.556;49.216;2023-08-08T11:21:35;5.70;;;3.00;;
67564;SDS011;54393;53.556;49.216;2023-08-08T11:24:04;4.68;;;2.97;;
67564;SDS011;54393;53.556;49.216;2023-08-08T11:26:31;5.30;;;3.05;;
67564;SDS011;54393;53.556;49.216;2023-08-08T11:28:59;6.15;;;3.28;;
67564;SDS011;54393;53.556;49.216;2023-08-08T11:31:26;3.97;;;2.70;;
67564;SDS011;54393;53.556;49.216;2023-08-08T11:33:53;8.05;;;3.25;;
67564;SDS011;54393;53.556;49.216;2023-08-08T11:36:21;4.65;;;2.87;;
67564;SDS011;54393;53.556;49.216;2023-08-08T11:38:48;4.87;;;2.97;;
67564;SDS011;54393;53.556;49.216;2023-08-08T11:41:19;5.82;;;2.90;;
67564;SDS011;54393;53.556;49.216;2023-08-08T11:43:49;4.40;;;3.35;;
67564;SDS011;54393;53.556;49.216;2023-08-08T11:46:16;5.57;;;3.30;;
67564;SDS011;54393;53.556;49.216;2023-08-08T11:48:45;6.68;;;3.00;;
67564;SDS011;54393;53.556;49.216;2023-08-08T11:51:13;3.78;;;2.85;;
67564;SDS011;54393;53.556;49.216;2023-08-08T11:53:52;7.15;;;3.17;;
67564;SDS011;54393;53.556;49.216;2023-08-08T11:56:19;7.62;;;3.25;;
67564;SDS011;54393;53.556;49.216;2023-08-08T11:58:50;3.60;;;2.97;;
67564;SDS011;54393;53.556;49.216;2023-08-08T12:01:21;5.50;;;2.90;;
67564;SDS011;54393;53.556;49.216;2023-08-08T12:03:48;5.30;;;3.47;;
67564;SDS011;54393;53.556;49.216;2023-08-08T12:06:15;3.87;;;2.92;;
67564;SDS011;54393;53.556;49.216;2023-08-08T12:08:45;5.75;;;3.10;;
67564;SDS011;54393;53.556;49.216;2023-08-08T12:11:13;5.65;;;3.33;;
67564;SDS011;54393;53.556;49.216;2023-08-08T12:13:40;3.70;;;3.22;;
67564;SDS011;54393;53.556;49.216;2023-08-08T12:16:11;3.78;;;2.75;;
67564;SDS011;54393;53.556;49.216;2023-08-08T12:18:38;3.12;;;2.85;;
67564;SDS011;54393;53.556;49.216;2023-08-08T12:21:06;3.40;;;2.30;;
67564;SDS011;54393;53.556;49.216;2023-08-08T12:23:33;3.22;;;2.92;;
67564;SDS011;54393;53.556;49.216;2023-08-08T12:26:02;3.42;;;2.42;;
67564;SDS011;54393;53.556;49.216;2023-08-08T12:28:30;3.25;;;2.55;;
67564;SDS011;54393;53.556;49.216;2023-08-08T12:30:56;2.60;;;2.37;;
67564;SDS011;54393;53.556;49.216;2023-08-08T12:33:23;7.37;;;2.67;;
67564;SDS011;54393;53.556;49.216;2023-08-08T12:35:49;4.30;;;2.58;;
67564;SDS011;54393;53.556;49.216;2023-08-08T12:38:16;3.80;;;2.50;;
67564;SDS011;54393;53.556;49.216;2023-08-08T12:40:43;2.55;;;2.35;;
67564;SDS011;54393;53.556;49.216;2023-08-08T12:43:09;3.20;;;2.42;;
67564;SDS011;54393;53.556;49.216;2023-08-08T12:45:43;3.00;;;2.72;;
67564;SDS011;54393;53.556;49.216;2023-08-08T12:48:10;3.08;;;2.60;;
67564;SDS011;54393;53.556;49.216;2023-08-08T12:50:37;2.45;;;2.25;;
67564;SDS011;54393;53.556;49.216;2023-08-08T12:53:04;2.10;;;1.90;;
67564;SDS011;54393;53.556;49.216;2023-08-08T12:55:31;4.18;;;2.37;;
67564;SDS011;54393;53.556;49.216;2023-08-08T12:57:57;2.72;;;2.53;;
67564;SDS011;54393;53.556;49.216;2023-08-08T13:00:24;3.47;;;2.40;;
67564;SDS011;54393;53.556;49.216;2023-08-08T13:02:50;4.78;;;2.53;;
67564;SDS011;54393;53.556;49.216;2023-08-08T13:05:17;2.67;;;2.25;;
67564;SDS011;54393;53.556;49.216;2023-08-08T13:07:43;2.72;;;2.22;;
67564;SDS011;54393;53.556;49.216;2023-08-08T13:10:10;2.60;;;2.35;;
67564;SDS011;54393;53.556;49.216;2023-08-08T13:12:36;3.10;;;2.40;;
67564;SDS011;54393;53.556;49.216;2023-08-08T13:15:03;2.00;;;1.87;;
67564;SDS011;54393;53.556;49.216;2023-08-08T13:17:30;2.33;;;2.15;;
67564;SDS011;54393;53.556;49.216;2023-08-08T13:19:57;3.95;;;2.05;;
67564;SDS011;54393;53.556;49.216;2023-08-08T13:22:23;6.87;;;2.17;;
67564;SDS011;54393;53.556;49.216;2023-08-08T13:24:49;2.58;;;1.83;;
67564;SDS011;54393;53.556;49.216;2023-08-08T13:27:16;2.87;;;2.17;;
67564;SDS011;54393;53.556;49.216;2023-08-08T13:29:42;2.50;;;1.90;;
67564;SDS011;54393;53.556;49.216;2023-08-08T13:32:09;2.58;;;2.08;;
67564;SDS011;54393;53.556;49.216;2023-08-08T13:34:35;3.25;;;2.12;;
67564;SDS011;54393;53.556;49.216;2023-08-08T13:37:02;2.22;;;2.03;;
67564;SDS011;54393;53.556;49.216;2023-08-08T13:39:28;3.47;;;1.90;;
67564;SDS011;54393;53.556;49.216;2023-08-08T13:41:55;2.75;;;1.98;;
67564;SDS011;54393;53.556;49.216;2023-08-08T13:44:21;1.98;;;1.87;;
67564;SDS011;54393;53.556;49.216;2023-08-08T13:46:49;2.12;;;1.80;;
67564;SDS011;54393;53.556;49.216;2023-08-08T13:49:16;2.25;;;1.75;;
67564;SDS011;54393;53.556;49.216;2023-08-08T13:51:43;3.03;;;1.80;;
67564;SDS011;54393;53.556;49.216;2023-08-08T13:54:09;1.92;;;1.77;;
67564;SDS011;54393;53.556;49.216;2023-08-08T13:56:36;2.00;;;1.77;;
67564;SDS011;54393;53.556;49.216;2023-08-08T13:59:02;1.70;;;1.33;;
67564;SDS011;54393;53.556;49.216;2023-08-08T14:01:29;2.25;;;1.90;;
67564;SDS011;54393;53.556;49.216;2023-08-08T14:03:55;3.03;;;1.40;;
67564;SDS011;54393;53.556;49.216;2023-08-08T14:06:21;1.65;;;1.55;;
67564;SDS011;54393;53.556;49.216;2023-08-08T14:08:48;2.22;;;1.67;;
67564;SDS011;54393;53.556;49.216;2023-08-08T14:11:14;1.60;;;1.50;;
67564;SDS011;54393;53.556;49.216;2023-08-08T14:13:41;1.98;;;1.87;;
67564;SDS011;54393;53.556;49.216;2023-08-08T14:16:07;1.67;;;1.58;;
67564;SDS011;54393;53.556;49.216;2023-08-08T14:18:34;2.10;;;1.95;;
67564;SDS011;54393;53.556;49.216;2023-08-08T14:21:00;1.60;;;1.50;;
67564;SDS011;54393;53.556;49.216;2023-08-08T14:23:29;1.92;;;1.40;;
67564;SDS011;54393;53.556;49.216;2023-08-08T14:25:56;1.73;;;1.60;;
67564;SDS011;54393;53.556;49.216;2023-08-08T14:28:22;1.77;;;1.40;;
67564;SDS011;54393;53.556;49.216;2023-08-08T14:30:49;1.83;;;1.73;;
67564;SDS011;54393;53.556;49.216;2023-08-08T14:33:16;1.85;;;1.70;;
67564;SDS011;54393;53.556;49.216;2023-08-08T14:35:42;2.12;;;1.50;;
67564;SDS011;54393;53.556;49.216;2023-08-08T14:38:09;1.50;;;1.40;;
67564;SDS011;54393;53.556;49.216;2023-08-08T14:40:35;2.33;;;1.60;;
67564;SDS011;54393;53.556;49.216;2023-08-08T14:43:02;1.80;;;1.50;;